JBU1189 KJFK-KSAN
Flight info
| Callsign | JBU1189 |
|---|---|
| Flight time | N/A |
| Altitude | 32000 |
| Route | RBV Q430 AIR J110 STL BUM ICT TOTOE FTI J18 HOGGZ LUCKI1 |
| Aircraft | A321/M-SDE3FGHIRWY/LB1 |
Departure
| Time | 2026-05-03 21:21 |
|---|---|
| Airport | John F. Kennedy International Airport (KJFK) |
Arrival
| Time | N/A |
|---|---|
| Airport | San Diego International Airport (KSAN) |
| Time | Latitude | Longitude | Altitude | Speed | Heading |
|---|---|---|---|---|---|
| 2026-05-03 21:06 | 40.64523 | -73.77386 | 32 ft | 0 kts | 357° |
| 2026-05-03 21:09 | 40.64521 | -73.77386 | 22 ft | 2 kts | 357° |
| 2026-05-03 21:10 | 40.64501 | -73.77385 | 24 ft | 4 kts | 13° |
| 2026-05-03 21:10 | 40.64480 | -73.77401 | 23 ft | 4 kts | 58° |
| 2026-05-03 21:10 | 40.64468 | -73.77433 | 25 ft | 4 kts | 64° |
| 2026-05-03 21:10 | 40.64456 | -73.77457 | 24 ft | 2 kts | 30° |
| 2026-05-03 21:11 | 40.64437 | -73.77471 | 24 ft | 1 kts | 30° |
| 2026-05-03 21:11 | 40.64436 | -73.77471 | 24 ft | 0 kts | 30° |
| 2026-05-03 21:13 | 40.64437 | -73.77471 | 24 ft | 1 kts | 30° |
| 2026-05-03 21:13 | 40.64452 | -73.77459 | 23 ft | 4 kts | 36° |
| 2026-05-03 21:13 | 40.64472 | -73.77411 | 25 ft | 8 kts | 79° |
| 2026-05-03 21:14 | 40.64473 | -73.77335 | 24 ft | 6 kts | 89° |
| 2026-05-03 21:14 | 40.64473 | -73.77331 | 25 ft | 1 kts | 89° |
| 2026-05-03 21:14 | 40.64473 | -73.77303 | 23 ft | 5 kts | 89° |
| 2026-05-03 21:14 | 40.64473 | -73.77261 | 23 ft | 4 kts | 90° |
| 2026-05-03 21:15 | 40.64462 | -73.77211 | 23 ft | 8 kts | 119° |
| 2026-05-03 21:15 | 40.64437 | -73.77119 | 22 ft | 13 kts | 104° |
| 2026-05-03 21:15 | 40.64411 | -73.76980 | 21 ft | 18 kts | 104° |
| 2026-05-03 21:15 | 40.64349 | -73.76822 | 19 ft | 20 kts | 120° |
| 2026-05-03 21:16 | 40.64277 | -73.76665 | 20 ft | 18 kts | 123° |
| 2026-05-03 21:16 | 40.64185 | -73.76674 | 23 ft | 14 kts | 211° |
| 2026-05-03 21:16 | 40.64103 | -73.76738 | 29 ft | 14 kts | 210° |
| 2026-05-03 21:16 | 40.64009 | -73.76813 | 28 ft | 17 kts | 211° |
| 2026-05-03 21:17 | 40.63904 | -73.76893 | 27 ft | 18 kts | 210° |
| 2026-05-03 21:17 | 40.63822 | -73.76915 | 30 ft | 19 kts | 179° |
| 2026-05-03 21:17 | 40.63635 | -73.76917 | 30 ft | 21 kts | 180° |
| 2026-05-03 21:17 | 40.63481 | -73.76926 | 24 ft | 23 kts | 186° |
| 2026-05-03 21:18 | 40.63309 | -73.76946 | 21 ft | 25 kts | 181° |
| 2026-05-03 21:18 | 40.63136 | -73.76958 | 22 ft | 25 kts | 193° |
| 2026-05-03 21:18 | 40.62981 | -73.77060 | 22 ft | 23 kts | 211° |
| 2026-05-03 21:18 | 40.62907 | -73.77118 | 24 ft | 1 kts | 210° |
| 2026-05-03 21:19 | 40.62900 | -73.77123 | 24 ft | 2 kts | 210° |
| 2026-05-03 21:19 | 40.62864 | -73.77151 | 25 ft | 10 kts | 210° |
| 2026-05-03 21:19 | 40.62819 | -73.77212 | 24 ft | 9 kts | 265° |
| 2026-05-03 21:19 | 40.62834 | -73.77256 | 26 ft | 0 kts | 301° |
| 2026-05-03 21:20 | 40.62835 | -73.77258 | 26 ft | 3 kts | 301° |
| 2026-05-03 21:20 | 40.62943 | -73.77495 | 28 ft | 63 kts | 301° |
| 2026-05-03 21:21 | 40.63274 | -73.78224 | 22 ft | 122 kts | 301° |
| 2026-05-03 21:21 | 40.63795 | -73.79375 | 30 ft | 168 kts | 301° |
| 2026-05-03 21:21 | 40.64409 | -73.80741 | 502 ft | 174 kts | 303° |
| 2026-05-03 21:21 | 40.64800 | -73.82226 | 1212 ft | 177 kts | 275° |
| 2026-05-03 21:22 | 40.64428 | -73.83842 | 1516 ft | 200 kts | 238° |
| 2026-05-03 21:22 | 40.63357 | -73.85087 | 1978 ft | 209 kts | 224° |
| 2026-05-03 21:22 | 40.62190 | -73.86256 | 2453 ft | 212 kts | 224° |
| 2026-05-03 21:22 | 40.61004 | -73.87444 | 2906 ft | 218 kts | 225° |
| 2026-05-03 21:23 | 40.59825 | -73.88656 | 3575 ft | 213 kts | 226° |
| 2026-05-03 21:23 | 40.58763 | -73.90031 | 3981 ft | 222 kts | 233° |
| 2026-05-03 21:23 | 40.57651 | -73.91600 | 4138 ft | 246 kts | 233° |
| 2026-05-03 21:23 | 40.56419 | -73.93248 | 4611 ft | 260 kts | 226° |
| 2026-05-03 21:24 | 40.54908 | -73.94628 | 5256 ft | 268 kts | 217° |
| 2026-05-03 21:24 | 40.53318 | -73.95908 | 6005 ft | 268 kts | 217° |
| 2026-05-03 21:24 | 40.51719 | -73.97203 | 6647 ft | 273 kts | 218° |
| 2026-05-03 21:24 | 40.50126 | -73.98511 | 7264 ft | 276 kts | 218° |
| 2026-05-03 21:25 | 40.48527 | -73.99941 | 7931 ft | 275 kts | 226° |
| 2026-05-03 21:25 | 40.47183 | -74.01692 | 8557 ft | 271 kts | 238° |
| 2026-05-03 21:25 | 40.46036 | -74.03670 | 9213 ft | 273 kts | 239° |
| 2026-05-03 21:25 | 40.44903 | -74.05689 | 9849 ft | 276 kts | 240° |
| 2026-05-03 21:26 | 40.43759 | -74.07750 | 10286 ft | 286 kts | 240° |
| 2026-05-03 21:26 | 40.42553 | -74.09940 | 10413 ft | 307 kts | 240° |
| 2026-05-03 21:26 | 40.41261 | -74.12282 | 10545 ft | 326 kts | 239° |
| 2026-05-03 21:26 | 40.39889 | -74.14744 | 10801 ft | 340 kts | 239° |
| 2026-05-03 21:27 | 40.38475 | -74.17257 | 11311 ft | 344 kts | 238° |
| 2026-05-03 21:27 | 40.37043 | -74.19791 | 11895 ft | 347 kts | 238° |
| 2026-05-03 21:27 | 40.35600 | -74.22339 | 12492 ft | 349 kts | 238° |
| 2026-05-03 21:27 | 40.34148 | -74.24904 | 13089 ft | 352 kts | 238° |
| 2026-05-03 21:28 | 40.32687 | -74.27495 | 13679 ft | 354 kts | 238° |
| 2026-05-03 21:28 | 40.31218 | -74.30102 | 14209 ft | 357 kts | 239° |
| 2026-05-03 21:28 | 40.29741 | -74.32724 | 14752 ft | 359 kts | 239° |
| 2026-05-03 21:28 | 40.28255 | -74.35362 | 15297 ft | 361 kts | 239° |
| 2026-05-03 21:29 | 40.26759 | -74.38010 | 15826 ft | 363 kts | 239° |
| 2026-05-03 21:29 | 40.25253 | -74.40667 | 16383 ft | 364 kts | 239° |
| 2026-05-03 21:29 | 40.23740 | -74.43333 | 16936 ft | 366 kts | 239° |
| 2026-05-03 21:29 | 40.22223 | -74.46023 | 17461 ft | 367 kts | 241° |
| 2026-05-03 21:30 | 40.20974 | -74.48909 | 18000 ft | 363 kts | 251° |
| 2026-05-03 21:30 | 40.20167 | -74.52012 | 18492 ft | 359 kts | 262° |
| 2026-05-03 21:30 | 40.19798 | -74.55221 | 18949 ft | 357 kts | 268° |
| 2026-05-03 21:30 | 40.19559 | -74.58461 | 19433 ft | 358 kts | 268° |
| 2026-05-03 21:31 | 40.19308 | -74.61710 | 19911 ft | 360 kts | 268° |
| 2026-05-03 21:31 | 40.19049 | -74.64975 | 20386 ft | 362 kts | 268° |
| 2026-05-03 21:31 | 40.18787 | -74.68251 | 20856 ft | 363 kts | 268° |
| 2026-05-03 21:31 | 40.18521 | -74.71540 | 21310 ft | 365 kts | 268° |
| 2026-05-03 21:32 | 40.18344 | -74.73730 | 21609 ft | 366 kts | 268° |
| 2026-05-03 21:32 | 40.18079 | -74.77043 | 22034 ft | 367 kts | 268° |
| 2026-05-03 21:32 | 40.17812 | -74.80368 | 22458 ft | 369 kts | 268° |
| 2026-05-03 21:32 | 40.17543 | -74.83711 | 22883 ft | 371 kts | 268° |
| 2026-05-03 21:33 | 40.17271 | -74.87074 | 23301 ft | 372 kts | 268° |
| 2026-05-03 21:33 | 40.16999 | -74.90439 | 23678 ft | 374 kts | 268° |
| 2026-05-03 21:33 | 40.16726 | -74.93830 | 23998 ft | 376 kts | 268° |
| 2026-05-03 21:33 | 40.16449 | -74.97233 | 24343 ft | 377 kts | 268° |
| 2026-05-03 21:34 | 40.16169 | -75.00654 | 24683 ft | 379 kts | 267° |
| 2026-05-03 21:34 | 40.15888 | -75.04086 | 25017 ft | 381 kts | 267° |
| 2026-05-03 21:34 | 40.15605 | -75.07534 | 25311 ft | 383 kts | 267° |
| 2026-05-03 21:34 | 40.15321 | -75.11003 | 25628 ft | 384 kts | 267° |
| 2026-05-03 21:35 | 40.15034 | -75.14486 | 25935 ft | 386 kts | 266° |
| 2026-05-03 21:35 | 40.14742 | -75.17980 | 26248 ft | 388 kts | 266° |
| 2026-05-03 21:35 | 40.14447 | -75.21495 | 26550 ft | 390 kts | 266° |
| 2026-05-03 21:35 | 40.14148 | -75.25018 | 26850 ft | 391 kts | 266° |
| 2026-05-03 21:36 | 40.13848 | -75.28557 | 27141 ft | 393 kts | 266° |
| 2026-05-03 21:36 | 40.13544 | -75.32107 | 27430 ft | 394 kts | 266° |
| 2026-05-03 21:36 | 40.13239 | -75.35676 | 27719 ft | 396 kts | 266° |
| 2026-05-03 21:36 | 40.12935 | -75.39255 | 28004 ft | 397 kts | 266° |
| 2026-05-03 21:37 | 40.12627 | -75.42852 | 28268 ft | 399 kts | 266° |
| 2026-05-03 21:37 | 40.12316 | -75.46469 | 28536 ft | 402 kts | 266° |
| 2026-05-03 21:37 | 40.12003 | -75.50103 | 28805 ft | 404 kts | 266° |
| 2026-05-03 21:37 | 40.11689 | -75.53754 | 29093 ft | 405 kts | 266° |
| 2026-05-03 21:38 | 40.11375 | -75.57404 | 29489 ft | 404 kts | 266° |
| 2026-05-03 21:38 | 40.11062 | -75.61042 | 29916 ft | 402 kts | 266° |
| 2026-05-03 21:38 | 40.10747 | -75.64663 | 30272 ft | 401 kts | 266° |
| 2026-05-03 21:38 | 40.10430 | -75.68277 | 30593 ft | 400 kts | 265° |
| 2026-05-03 21:39 | 40.10113 | -75.71883 | 30895 ft | 399 kts | 265° |
| 2026-05-03 21:39 | 40.09794 | -75.75481 | 31196 ft | 398 kts | 265° |
| 2026-05-03 21:39 | 40.09471 | -75.79070 | 31491 ft | 398 kts | 265° |
| 2026-05-03 21:39 | 40.09147 | -75.82655 | 31746 ft | 398 kts | 265° |
| 2026-05-03 21:40 | 40.08824 | -75.86248 | 31955 ft | 398 kts | 265° |
| 2026-05-03 21:40 | 40.08505 | -75.89823 | 32007 ft | 395 kts | 265° |
| 2026-05-03 21:40 | 40.07875 | -75.96914 | 32001 ft | 392 kts | 265° |
| 2026-05-03 21:41 | 40.07238 | -76.03983 | 32008 ft | 392 kts | 265° |
| 2026-05-03 21:41 | 40.06595 | -76.11038 | 31995 ft | 389 kts | 265° |
| 2026-05-03 21:42 | 40.05949 | -76.18012 | 32012 ft | 386 kts | 265° |
| 2026-05-03 21:42 | 40.05306 | -76.24978 | 32017 ft | 387 kts | 265° |
| 2026-05-03 21:43 | 40.04667 | -76.31894 | 32018 ft | 387 kts | 265° |
| 2026-05-03 21:43 | 40.04010 | -76.38911 | 32021 ft | 387 kts | 265° |
| 2026-05-03 21:44 | 40.03351 | -76.45826 | 32023 ft | 387 kts | 265° |
| 2026-05-03 21:44 | 40.02692 | -76.52782 | 32017 ft | 386 kts | 265° |
| 2026-05-03 21:45 | 40.02029 | -76.59728 | 32021 ft | 385 kts | 265° |
| 2026-05-03 21:45 | 40.01354 | -76.66661 | 32023 ft | 385 kts | 265° |
| 2026-05-03 21:46 | 40.00680 | -76.73591 | 32019 ft | 385 kts | 265° |
| 2026-05-03 21:46 | 40.00001 | -76.80560 | 32019 ft | 385 kts | 265° |
| 2026-05-03 21:47 | 39.99321 | -76.87483 | 32019 ft | 385 kts | 265° |
| 2026-05-03 21:47 | 39.98641 | -76.94351 | 32044 ft | 384 kts | 265° |
| 2026-05-03 21:48 | 39.97959 | -77.01243 | 32044 ft | 383 kts | 265° |
| 2026-05-03 21:48 | 39.97272 | -77.08126 | 32044 ft | 383 kts | 265° |
| 2026-05-03 21:49 | 39.96580 | -77.15000 | 32045 ft | 382 kts | 265° |
| 2026-05-03 21:49 | 39.95879 | -77.21867 | 32043 ft | 382 kts | 265° |
| 2026-05-03 21:50 | 39.95181 | -77.28733 | 32051 ft | 381 kts | 268° |
| 2026-05-03 21:50 | 39.95259 | -77.35586 | 32054 ft | 378 kts | 274° |
| 2026-05-03 21:51 | 39.95491 | -77.42425 | 32056 ft | 378 kts | 274° |
| 2026-05-03 21:51 | 39.95711 | -77.49269 | 32053 ft | 378 kts | 274° |
| 2026-05-03 21:52 | 39.95929 | -77.56107 | 32052 ft | 377 kts | 274° |
| 2026-05-03 21:52 | 39.96150 | -77.62937 | 32046 ft | 377 kts | 274° |
| 2026-05-03 21:53 | 39.96365 | -77.69753 | 32052 ft | 376 kts | 274° |
| 2026-05-03 21:53 | 39.96569 | -77.76559 | 32053 ft | 376 kts | 274° |
| 2026-05-03 21:54 | 39.96767 | -77.83359 | 32058 ft | 375 kts | 274° |
| 2026-05-03 21:54 | 39.96959 | -77.90157 | 32060 ft | 375 kts | 274° |
| 2026-05-03 21:55 | 39.97154 | -77.96951 | 32042 ft | 375 kts | 274° |
| 2026-05-03 21:55 | 39.97348 | -78.03738 | 32052 ft | 374 kts | 274° |
| 2026-05-03 21:56 | 39.97535 | -78.10517 | 32046 ft | 374 kts | 274° |
| 2026-05-03 21:56 | 39.97716 | -78.17254 | 32047 ft | 374 kts | 274° |
| 2026-05-03 21:57 | 39.97893 | -78.24064 | 32046 ft | 374 kts | 274° |
| 2026-05-03 21:57 | 39.98063 | -78.30842 | 32049 ft | 374 kts | 274° |
| 2026-05-03 21:58 | 39.98227 | -78.37569 | 32049 ft | 374 kts | 274° |
| 2026-05-03 21:58 | 39.98398 | -78.44341 | 32054 ft | 374 kts | 274° |
| 2026-05-03 21:59 | 39.98563 | -78.51107 | 32055 ft | 373 kts | 274° |
| 2026-05-03 21:59 | 39.98720 | -78.57865 | 32052 ft | 373 kts | 274° |
| 2026-05-03 22:00 | 39.98872 | -78.64628 | 32052 ft | 373 kts | 274° |
| 2026-05-03 22:00 | 39.99025 | -78.71400 | 32049 ft | 373 kts | 274° |
| 2026-05-03 22:01 | 39.99173 | -78.78167 | 32056 ft | 374 kts | 274° |
| 2026-05-03 22:01 | 39.99314 | -78.84941 | 32065 ft | 373 kts | 274° |
| 2026-05-03 22:02 | 39.99452 | -78.91711 | 32064 ft | 373 kts | 274° |
| 2026-05-03 22:02 | 39.99586 | -78.98483 | 32071 ft | 374 kts | 274° |
| 2026-05-03 22:03 | 39.99719 | -79.05258 | 32072 ft | 374 kts | 274° |
| 2026-05-03 22:03 | 39.99843 | -79.12038 | 32054 ft | 375 kts | 273° |
| 2026-05-03 22:04 | 39.99964 | -79.18838 | 32055 ft | 376 kts | 273° |
| 2026-05-03 22:04 | 40.00079 | -79.25656 | 32055 ft | 376 kts | 273° |
| 2026-05-03 22:05 | 40.00189 | -79.32480 | 32061 ft | 377 kts | 273° |
| 2026-05-03 22:05 | 40.00300 | -79.39315 | 32059 ft | 377 kts | 273° |
| 2026-05-03 22:06 | 40.00416 | -79.46144 | 32047 ft | 377 kts | 273° |
| 2026-05-03 22:06 | 40.00520 | -79.52945 | 32042 ft | 378 kts | 273° |
| 2026-05-03 22:07 | 40.00620 | -79.59806 | 32009 ft | 379 kts | 273° |
| 2026-05-03 22:07 | 40.00716 | -79.66671 | 32034 ft | 378 kts | 273° |
| 2026-05-03 22:08 | 40.00804 | -79.73533 | 32062 ft | 378 kts | 273° |
| 2026-05-03 22:08 | 40.00888 | -79.80385 | 32061 ft | 378 kts | 273° |
| 2026-05-03 22:09 | 40.00972 | -79.87245 | 32065 ft | 378 kts | 273° |
| 2026-05-03 22:10 | 40.01088 | -79.97538 | 32067 ft | 379 kts | 273° |
| 2026-05-03 22:10 | 40.01165 | -80.04402 | 32074 ft | 379 kts | 273° |
| 2026-05-03 22:11 | 40.01234 | -80.11275 | 32077 ft | 379 kts | 273° |
| 2026-05-03 22:11 | 40.01298 | -80.18147 | 32077 ft | 379 kts | 273° |
| 2026-05-03 22:12 | 40.01355 | -80.25018 | 32079 ft | 379 kts | 273° |
| 2026-05-03 22:12 | 40.01412 | -80.31886 | 32079 ft | 379 kts | 273° |
| 2026-05-03 22:13 | 40.01470 | -80.38753 | 32076 ft | 379 kts | 273° |
| 2026-05-03 22:13 | 40.01518 | -80.45618 | 32075 ft | 379 kts | 273° |
| 2026-05-03 22:14 | 40.01564 | -80.52485 | 32067 ft | 379 kts | 273° |
| 2026-05-03 22:14 | 40.01603 | -80.59352 | 32068 ft | 378 kts | 273° |
| 2026-05-03 22:15 | 40.01637 | -80.66208 | 32069 ft | 378 kts | 273° |
| 2026-05-03 22:15 | 40.01671 | -80.73050 | 32071 ft | 377 kts | 273° |
| 2026-05-03 22:16 | 40.01700 | -80.79889 | 32074 ft | 377 kts | 273° |
| 2026-05-03 22:16 | 40.01683 | -80.86728 | 32072 ft | 377 kts | 272° |
| 2026-05-03 22:17 | 40.01594 | -80.92412 | 32056 ft | 377 kts | 272° |
| 2026-05-03 22:17 | 40.01474 | -80.99241 | 32066 ft | 377 kts | 272° |
| 2026-05-03 22:18 | 40.01377 | -81.06069 | 32075 ft | 376 kts | 272° |
| 2026-05-03 22:18 | 40.01278 | -81.12887 | 32076 ft | 376 kts | 272° |
| 2026-05-03 22:19 | 40.01174 | -81.19700 | 32070 ft | 376 kts | 272° |
| 2026-05-03 22:19 | 40.01060 | -81.26515 | 32071 ft | 376 kts | 272° |
| 2026-05-03 22:20 | 40.00931 | -81.33326 | 32069 ft | 376 kts | 271° |
| 2026-05-03 22:20 | 40.00794 | -81.40134 | 32073 ft | 375 kts | 271° |
| 2026-05-03 22:21 | 40.00656 | -81.46936 | 32073 ft | 375 kts | 271° |
| 2026-05-03 22:21 | 40.00513 | -81.53734 | 32069 ft | 375 kts | 271° |
| 2026-05-03 22:22 | 40.00374 | -81.60532 | 32052 ft | 375 kts | 271° |
| 2026-05-03 22:22 | 40.00242 | -81.67324 | 32053 ft | 375 kts | 271° |
| 2026-05-03 22:23 | 40.00102 | -81.74069 | 32051 ft | 374 kts | 271° |
| 2026-05-03 22:23 | 39.99950 | -81.80856 | 32057 ft | 374 kts | 271° |
| 2026-05-03 22:24 | 39.99793 | -81.87628 | 32057 ft | 374 kts | 271° |
| 2026-05-03 22:24 | 39.99642 | -81.94408 | 32051 ft | 374 kts | 271° |
| 2026-05-03 22:25 | 39.99488 | -82.01178 | 32056 ft | 374 kts | 271° |
| 2026-05-03 22:25 | 39.99326 | -82.07954 | 32057 ft | 374 kts | 271° |
| 2026-05-03 22:26 | 39.99161 | -82.14719 | 32055 ft | 373 kts | 271° |
| 2026-05-03 22:26 | 39.98986 | -82.21489 | 32016 ft | 373 kts | 271° |
| 2026-05-03 22:27 | 39.98812 | -82.28253 | 32025 ft | 373 kts | 271° |
| 2026-05-03 22:27 | 39.98634 | -82.35015 | 32034 ft | 373 kts | 271° |
| 2026-05-03 22:28 | 39.98453 | -82.41775 | 32030 ft | 373 kts | 271° |
| 2026-05-03 22:28 | 39.98266 | -82.48541 | 32033 ft | 373 kts | 271° |
| 2026-05-03 22:29 | 39.98078 | -82.55301 | 32051 ft | 373 kts | 271° |
| 2026-05-03 22:29 | 39.97880 | -82.62061 | 32042 ft | 373 kts | 271° |
| 2026-05-03 22:30 | 39.97682 | -82.68825 | 32043 ft | 373 kts | 271° |
| 2026-05-03 22:30 | 39.97487 | -82.75594 | 32044 ft | 373 kts | 271° |
| 2026-05-03 22:31 | 39.97279 | -82.82310 | 32034 ft | 373 kts | 271° |
| 2026-05-03 22:31 | 39.97065 | -82.89064 | 32037 ft | 373 kts | 271° |
| 2026-05-03 22:32 | 39.96849 | -82.95813 | 32037 ft | 373 kts | 271° |
| 2026-05-03 22:32 | 39.96632 | -83.02560 | 32037 ft | 373 kts | 271° |
| 2026-05-03 22:33 | 39.96475 | -83.09307 | 32050 ft | 372 kts | 272° |
| 2026-05-03 22:33 | 39.96367 | -83.16047 | 32044 ft | 372 kts | 272° |
| 2026-05-03 22:34 | 39.96223 | -83.22791 | 32053 ft | 372 kts | 271° |
| 2026-05-03 22:34 | 39.95987 | -83.29529 | 32056 ft | 372 kts | 271° |
| 2026-05-03 22:35 | 39.95735 | -83.36260 | 32056 ft | 372 kts | 271° |
| 2026-05-03 22:35 | 39.95495 | -83.42986 | 32056 ft | 371 kts | 271° |
| 2026-05-03 22:36 | 39.95259 | -83.49709 | 32071 ft | 371 kts | 271° |
| 2026-05-03 22:36 | 39.95027 | -83.56433 | 32062 ft | 371 kts | 271° |
| 2026-05-03 22:37 | 39.94786 | -83.63152 | 32062 ft | 371 kts | 270° |
| 2026-05-03 22:37 | 39.94538 | -83.69880 | 32058 ft | 372 kts | 270° |
| 2026-05-03 22:38 | 39.94285 | -83.76562 | 32060 ft | 372 kts | 270° |
| 2026-05-03 22:38 | 39.94026 | -83.83287 | 32061 ft | 372 kts | 270° |
| 2026-05-03 22:39 | 39.93765 | -83.90012 | 32061 ft | 372 kts | 270° |
| 2026-05-03 22:39 | 39.93503 | -83.96738 | 32042 ft | 372 kts | 270° |
| 2026-05-03 22:40 | 39.93229 | -84.03465 | 32044 ft | 372 kts | 270° |
| 2026-05-03 22:40 | 39.92956 | -84.10193 | 32055 ft | 372 kts | 270° |
| 2026-05-03 22:41 | 39.92683 | -84.16921 | 32057 ft | 372 kts | 270° |
| 2026-05-03 22:41 | 39.92407 | -84.23646 | 32058 ft | 372 kts | 270° |
| 2026-05-03 22:42 | 39.92117 | -84.30369 | 32049 ft | 372 kts | 270° |
| 2026-05-03 22:42 | 39.91828 | -84.37088 | 32056 ft | 371 kts | 270° |
| 2026-05-03 22:43 | 39.91538 | -84.43804 | 32061 ft | 371 kts | 270° |
| 2026-05-03 22:43 | 39.91243 | -84.50511 | 32056 ft | 371 kts | 270° |
| 2026-05-03 22:44 | 39.90937 | -84.57222 | 32046 ft | 371 kts | 270° |
| 2026-05-03 22:44 | 39.90632 | -84.63925 | 32009 ft | 371 kts | 270° |
| 2026-05-03 22:45 | 39.90327 | -84.70626 | 32012 ft | 370 kts | 270° |
| 2026-05-03 22:45 | 39.90023 | -84.77308 | 32024 ft | 370 kts | 270° |
| 2026-05-03 22:46 | 39.89713 | -84.83984 | 32026 ft | 369 kts | 270° |
| 2026-05-03 22:46 | 39.89396 | -84.90652 | 32030 ft | 369 kts | 270° |
| 2026-05-03 22:47 | 39.89073 | -84.97315 | 32024 ft | 369 kts | 270° |
| 2026-05-03 22:47 | 39.88749 | -85.03974 | 32033 ft | 368 kts | 270° |
| 2026-05-03 22:48 | 39.88422 | -85.10633 | 32017 ft | 369 kts | 270° |
| 2026-05-03 22:48 | 39.88091 | -85.17293 | 32012 ft | 369 kts | 270° |
| 2026-05-03 22:49 | 39.87751 | -85.23949 | 32020 ft | 369 kts | 270° |
| 2026-05-03 22:49 | 39.87410 | -85.30613 | 32018 ft | 369 kts | 270° |
| 2026-05-03 22:50 | 39.87067 | -85.37233 | 31984 ft | 369 kts | 270° |
| 2026-05-03 22:50 | 39.86721 | -85.43890 | 31967 ft | 369 kts | 271° |
| 2026-05-03 22:51 | 39.86371 | -85.50553 | 31980 ft | 369 kts | 270° |
| 2026-05-03 22:51 | 39.86013 | -85.57209 | 31989 ft | 369 kts | 270° |
| 2026-05-03 22:52 | 39.85658 | -85.63863 | 31984 ft | 368 kts | 270° |
| 2026-05-03 22:52 | 39.85301 | -85.70515 | 31982 ft | 368 kts | 270° |
| 2026-05-03 22:53 | 39.84933 | -85.77165 | 31976 ft | 368 kts | 270° |
| 2026-05-03 22:53 | 39.84559 | -85.83813 | 31976 ft | 368 kts | 270° |
| 2026-05-03 22:54 | 39.84187 | -85.90463 | 31975 ft | 368 kts | 270° |
| 2026-05-03 22:54 | 39.83812 | -85.97107 | 31976 ft | 368 kts | 270° |
| 2026-05-03 22:55 | 39.83429 | -86.03754 | 31977 ft | 368 kts | 270° |
| 2026-05-03 22:55 | 39.83041 | -86.10400 | 31980 ft | 368 kts | 270° |
| 2026-05-03 22:56 | 39.82656 | -86.17041 | 31981 ft | 368 kts | 270° |
| 2026-05-03 22:56 | 39.82262 | -86.23683 | 31991 ft | 368 kts | 270° |
| 2026-05-03 22:57 | 39.81865 | -86.30303 | 31988 ft | 367 kts | 270° |
| 2026-05-03 22:57 | 39.81390 | -86.36907 | 31985 ft | 369 kts | 264° |
| 2026-05-03 22:58 | 39.80056 | -86.43407 | 31986 ft | 372 kts | 261° |
| 2026-05-03 22:58 | 39.78686 | -86.49897 | 31984 ft | 372 kts | 261° |
| 2026-05-03 22:59 | 39.77318 | -86.56388 | 31983 ft | 372 kts | 261° |
| 2026-05-03 22:59 | 39.75937 | -86.62875 | 31958 ft | 372 kts | 261° |
| 2026-05-03 23:00 | 39.74541 | -86.69367 | 31909 ft | 374 kts | 261° |
| 2026-05-03 23:00 | 39.73141 | -86.75879 | 31915 ft | 375 kts | 261° |
| 2026-05-03 23:01 | 39.71759 | -86.82271 | 31924 ft | 376 kts | 261° |
| 2026-05-03 23:01 | 39.71048 | -86.85560 | 32038 ft | 380 kts | 261° |
| 2026-05-03 23:01 | 39.70333 | -86.88874 | 32278 ft | 382 kts | 261° |
| 2026-05-03 23:01 | 39.69614 | -86.92188 | 32608 ft | 381 kts | 261° |
| 2026-05-03 23:02 | 39.68885 | -86.95539 | 32933 ft | 380 kts | 261° |
| 2026-05-03 23:02 | 39.68176 | -86.98797 | 33264 ft | 379 kts | 262° |
| 2026-05-03 23:02 | 39.67462 | -87.02090 | 33602 ft | 378 kts | 262° |
| 2026-05-03 23:02 | 39.66749 | -87.05371 | 33909 ft | 378 kts | 262° |
| 2026-05-03 23:03 | 39.66024 | -87.08695 | 33970 ft | 377 kts | 262° |
| 2026-05-03 23:03 | 39.64606 | -87.15191 | 33970 ft | 377 kts | 262° |
| 2026-05-03 23:04 | 39.63175 | -87.21727 | 33973 ft | 376 kts | 262° |
| 2026-05-03 23:04 | 39.61742 | -87.28260 | 33975 ft | 377 kts | 262° |
| 2026-05-03 23:05 | 39.60303 | -87.34786 | 33952 ft | 376 kts | 262° |
| 2026-05-03 23:05 | 39.59103 | -87.40214 | 33960 ft | 377 kts | 262° |
| 2026-05-03 23:06 | 39.57655 | -87.46741 | 33964 ft | 377 kts | 262° |
| 2026-05-03 23:06 | 39.56204 | -87.53270 | 33942 ft | 377 kts | 262° |
| 2026-05-03 23:07 | 39.54745 | -87.59798 | 33912 ft | 377 kts | 261° |
| 2026-05-03 23:07 | 39.53283 | -87.66313 | 33926 ft | 377 kts | 261° |
| 2026-05-03 23:08 | 39.51818 | -87.72831 | 33924 ft | 377 kts | 261° |
| 2026-05-03 23:08 | 39.50356 | -87.79345 | 33938 ft | 377 kts | 261° |
| 2026-05-03 23:09 | 39.48882 | -87.85855 | 33945 ft | 377 kts | 261° |
| 2026-05-03 23:09 | 39.47407 | -87.92364 | 33948 ft | 377 kts | 261° |
| 2026-05-03 23:10 | 39.45933 | -87.98870 | 33958 ft | 377 kts | 261° |
| 2026-05-03 23:10 | 39.44451 | -88.05374 | 33954 ft | 377 kts | 261° |
| 2026-05-03 23:11 | 39.42969 | -88.11877 | 33932 ft | 377 kts | 261° |
| 2026-05-03 23:11 | 39.41483 | -88.18382 | 33938 ft | 377 kts | 261° |
| 2026-05-03 23:12 | 39.39988 | -88.24889 | 33944 ft | 378 kts | 261° |
| 2026-05-03 23:12 | 39.38487 | -88.31393 | 33948 ft | 378 kts | 261° |
| 2026-05-03 23:13 | 39.36980 | -88.37903 | 33950 ft | 378 kts | 261° |
| 2026-05-03 23:13 | 39.35473 | -88.44406 | 33951 ft | 378 kts | 261° |
| 2026-05-03 23:14 | 39.33966 | -88.50911 | 33890 ft | 378 kts | 261° |
| 2026-05-03 23:14 | 39.32453 | -88.57427 | 33923 ft | 379 kts | 261° |
| 2026-05-03 23:15 | 39.30929 | -88.63951 | 33934 ft | 379 kts | 261° |
| 2026-05-03 23:15 | 39.29409 | -88.70426 | 33938 ft | 380 kts | 261° |
| 2026-05-03 23:16 | 39.27875 | -88.76946 | 33952 ft | 379 kts | 261° |
| 2026-05-03 23:16 | 39.26339 | -88.83460 | 33950 ft | 379 kts | 261° |
| 2026-05-03 23:17 | 39.24803 | -88.89975 | 33912 ft | 380 kts | 261° |
| 2026-05-03 23:17 | 39.23249 | -88.96543 | 33921 ft | 381 kts | 261° |
| 2026-05-03 23:18 | 39.21710 | -89.03033 | 33927 ft | 381 kts | 261° |
| 2026-05-03 23:18 | 39.20152 | -89.09567 | 33925 ft | 381 kts | 261° |
| 2026-05-03 23:19 | 39.18581 | -89.16105 | 33929 ft | 382 kts | 261° |
| 2026-05-03 23:19 | 39.17014 | -89.22639 | 33931 ft | 382 kts | 261° |
| 2026-05-03 23:20 | 39.15446 | -89.29177 | 33908 ft | 382 kts | 261° |
| 2026-05-03 23:20 | 39.13877 | -89.35717 | 33912 ft | 382 kts | 261° |
| 2026-05-03 23:21 | 39.12298 | -89.42259 | 33904 ft | 383 kts | 261° |
| 2026-05-03 23:21 | 39.10709 | -89.48800 | 33878 ft | 383 kts | 260° |
| 2026-05-03 23:22 | 39.08311 | -89.58643 | 33884 ft | 385 kts | 260° |
| 2026-05-03 23:22 | 39.06704 | -89.65209 | 33894 ft | 385 kts | 260° |
| 2026-05-03 23:23 | 39.05101 | -89.71785 | 33898 ft | 385 kts | 260° |
| 2026-05-03 23:23 | 39.03497 | -89.78355 | 33903 ft | 385 kts | 260° |
| 2026-05-03 23:24 | 39.01883 | -89.84925 | 33907 ft | 385 kts | 260° |
| 2026-05-03 23:24 | 39.00259 | -89.91487 | 33908 ft | 385 kts | 260° |
| 2026-05-03 23:25 | 38.98632 | -89.98052 | 33910 ft | 385 kts | 260° |
| 2026-05-03 23:25 | 38.97008 | -90.04612 | 33910 ft | 385 kts | 261° |
| 2026-05-03 23:26 | 38.95382 | -90.11160 | 33918 ft | 385 kts | 260° |
| 2026-05-03 23:26 | 38.93747 | -90.17704 | 33918 ft | 385 kts | 260° |
| 2026-05-03 23:27 | 38.92113 | -90.24245 | 33896 ft | 384 kts | 261° |
| 2026-05-03 23:27 | 38.90476 | -90.30775 | 33893 ft | 384 kts | 260° |
| 2026-05-03 23:28 | 38.88832 | -90.37306 | 33865 ft | 384 kts | 260° |
| 2026-05-03 23:28 | 38.87185 | -90.43835 | 33852 ft | 385 kts | 260° |
| 2026-05-03 23:29 | 38.85781 | -90.50420 | 33862 ft | 378 kts | 268° |
| 2026-05-03 23:29 | 38.84930 | -90.57077 | 33867 ft | 379 kts | 268° |
| 2026-05-03 23:30 | 38.84073 | -90.63740 | 33876 ft | 379 kts | 268° |
| 2026-05-03 23:30 | 38.83206 | -90.70406 | 33882 ft | 379 kts | 267° |
| 2026-05-03 23:31 | 38.82330 | -90.77076 | 33877 ft | 379 kts | 267° |
| 2026-05-03 23:31 | 38.81446 | -90.83745 | 33875 ft | 379 kts | 267° |
| 2026-05-03 23:32 | 38.80573 | -90.90374 | 33883 ft | 379 kts | 267° |
| 2026-05-03 23:32 | 38.79692 | -90.97084 | 33883 ft | 379 kts | 267° |
| 2026-05-03 23:33 | 38.78807 | -91.03706 | 33884 ft | 379 kts | 267° |
| 2026-05-03 23:33 | 38.77908 | -91.10369 | 33887 ft | 379 kts | 267° |
| 2026-05-03 23:34 | 38.77006 | -91.17033 | 33873 ft | 379 kts | 267° |
| 2026-05-03 23:34 | 38.76099 | -91.23695 | 33880 ft | 379 kts | 267° |
| 2026-05-03 23:35 | 38.75189 | -91.30348 | 33879 ft | 379 kts | 267° |
| 2026-05-03 23:35 | 38.74285 | -91.37006 | 33876 ft | 380 kts | 267° |
| 2026-05-03 23:36 | 38.73376 | -91.43665 | 33871 ft | 380 kts | 267° |
| 2026-05-03 23:36 | 38.72462 | -91.50324 | 33877 ft | 379 kts | 267° |
| 2026-05-03 23:37 | 38.71545 | -91.56978 | 33848 ft | 379 kts | 266° |
| 2026-05-03 23:37 | 38.70622 | -91.63635 | 33854 ft | 380 kts | 266° |
| 2026-05-03 23:38 | 38.69686 | -91.70291 | 33859 ft | 380 kts | 266° |
| 2026-05-03 23:38 | 38.68752 | -91.76953 | 33863 ft | 380 kts | 266° |
| 2026-05-03 23:39 | 38.67813 | -91.83615 | 33869 ft | 380 kts | 266° |
| 2026-05-03 23:39 | 38.66867 | -91.90274 | 33886 ft | 380 kts | 266° |
| 2026-05-03 23:40 | 38.65926 | -91.96935 | 33889 ft | 380 kts | 266° |
| 2026-05-03 23:40 | 38.64982 | -92.03591 | 33897 ft | 380 kts | 266° |
| 2026-05-03 23:41 | 38.64034 | -92.10243 | 33903 ft | 380 kts | 266° |
| 2026-05-03 23:41 | 38.63084 | -92.16895 | 33856 ft | 380 kts | 266° |
| 2026-05-03 23:42 | 38.62120 | -92.23562 | 33864 ft | 382 kts | 266° |
| 2026-05-03 23:42 | 38.61151 | -92.30238 | 33865 ft | 382 kts | 265° |
| 2026-05-03 23:43 | 38.60176 | -92.36929 | 33865 ft | 383 kts | 265° |